createdAt,value
2022-09-21T00:00:46.347Z,10.61
2022-09-21T00:01:46.963Z,10.60
2022-09-21T00:02:47.036Z,10.57
2022-09-21T00:03:46.265Z,10.57
2022-09-21T00:04:46.267Z,10.54
2022-09-21T00:05:46.923Z,10.52
2022-09-21T00:06:46.218Z,10.50
2022-09-21T00:07:46.215Z,10.50
2022-09-21T00:08:46.287Z,10.49
2022-09-21T00:09:46.207Z,10.47
2022-09-21T00:10:47.138Z,10.46
2022-09-21T00:11:47.136Z,10.45
2022-09-21T00:12:46.193Z,10.43
2022-09-21T00:13:46.326Z,10.42
2022-09-21T00:14:46.240Z,10.41
2022-09-21T00:15:46.807Z,10.40
2022-09-21T00:16:46.375Z,10.40
2022-09-21T00:17:46.510Z,10.38
2022-09-21T00:18:46.364Z,10.38
2022-09-21T00:19:46.179Z,10.36
2022-09-21T00:20:46.981Z,10.35
2022-09-21T00:21:46.179Z,10.33
2022-09-21T00:22:46.082Z,10.33
2022-09-21T00:23:47.091Z,10.30
2022-09-21T00:24:46.071Z,10.29
2022-09-21T00:25:46.040Z,10.27
2022-09-21T00:26:46.671Z,10.25
2022-09-21T00:27:47.484Z,10.25
2022-09-21T00:28:46.671Z,10.23
2022-09-21T00:29:46.670Z,10.20
2022-09-21T00:30:46.032Z,10.19
2022-09-21T00:31:46.051Z,10.18
2022-09-21T00:32:46.702Z,10.18
2022-09-21T00:33:46.854Z,10.16
2022-09-21T00:34:45.929Z,10.15
2022-09-21T00:35:46.052Z,10.14
2022-09-21T00:36:45.941Z,10.14
2022-09-21T00:37:46.817Z,10.13
2022-09-21T00:38:45.971Z,10.12
2022-09-21T00:39:46.003Z,10.10
2022-09-21T00:40:45.892Z,10.09
2022-09-21T00:41:46.532Z,10.08
2022-09-21T00:42:46.529Z,10.07
2022-09-21T00:43:45.863Z,10.05
2022-09-21T00:44:45.933Z,10.04
2022-09-21T00:45:45.892Z,10.02
2022-09-21T00:46:45.864Z,10.03
2022-09-21T00:47:45.994Z,10.02
2022-09-21T00:48:47.204Z,10.01
2022-09-21T00:49:45.827Z,10.00
2022-09-21T00:50:45.933Z,9.98
2022-09-21T00:51:46.442Z,9.97
2022-09-21T00:52:45.816Z,9.96
2022-09-21T00:53:45.798Z,9.94
2022-09-21T00:54:45.816Z,9.92
2022-09-21T00:55:46.383Z,9.91
2022-09-21T00:56:46.387Z,9.89
2022-09-21T00:57:46.372Z,9.87
2022-09-21T00:58:45.686Z,9.85
2022-09-21T00:59:46.346Z,9.84
2022-09-21T01:00:45.675Z,9.83
2022-09-21T01:01:46.368Z,9.82
2022-09-21T01:02:45.656Z,9.81
2022-09-21T01:03:45.690Z,9.82
2022-09-21T01:04:45.685Z,9.80
2022-09-21T01:05:45.696Z,9.79
2022-09-21T01:06:45.568Z,9.78
2022-09-21T01:07:46.265Z,9.77
2022-09-21T01:08:45.707Z,9.76
2022-09-21T01:09:46.469Z,9.75
2022-09-21T01:10:46.228Z,9.75
2022-09-21T01:11:46.207Z,9.74
2022-09-21T01:12:46.198Z,9.74
2022-09-21T01:13:45.522Z,9.74
2022-09-21T01:14:45.547Z,9.73
2022-09-21T01:15:46.176Z,9.71
2022-09-21T01:16:46.167Z,9.72
2022-09-21T01:17:46.171Z,9.70
2022-09-21T01:18:46.890Z,9.67
2022-09-21T01:19:45.532Z,9.66
2022-09-21T01:20:45.559Z,9.65
2022-09-21T01:21:46.110Z,9.64
2022-09-21T01:22:45.509Z,9.63
2022-09-21T01:23:45.406Z,9.61
2022-09-21T01:24:46.077Z,9.59
2022-09-21T01:25:46.064Z,9.58
2022-09-21T01:26:45.380Z,9.57
2022-09-21T01:27:46.326Z,9.56
2022-09-21T01:28:46.032Z,9.55
2022-09-21T01:29:46.022Z,9.55
2022-09-21T01:30:48.932Z,9.55
2022-09-21T01:31:45.410Z,9.55
2022-09-21T01:32:45.351Z,9.54
2022-09-21T01:33:45.292Z,9.53
2022-09-21T01:34:46.733Z,9.53
2022-09-21T01:35:45.281Z,9.53
2022-09-21T01:36:45.272Z,9.53
2022-09-21T01:37:45.946Z,9.52
2022-09-21T01:38:45.913Z,9.50
2022-09-21T01:39:45.242Z,9.50
2022-09-21T01:40:45.920Z,9.50
2022-09-21T01:41:45.896Z,9.49
2022-09-21T01:42:45.245Z,9.49
2022-09-21T01:43:45.294Z,9.48
2022-09-21T01:44:45.261Z,9.47
2022-09-21T01:45:45.238Z,9.47
2022-09-21T01:46:45.174Z,9.46
2022-09-21T01:47:45.835Z,9.45
2022-09-21T01:48:45.829Z,9.46
2022-09-21T01:49:47.387Z,9.45
2022-09-21T01:50:45.797Z,9.45
2022-09-21T01:51:45.156Z,9.45
2022-09-21T01:52:45.775Z,9.44
2022-09-21T01:53:45.085Z,9.44
2022-09-21T01:54:45.875Z,9.44
2022-09-21T01:55:45.086Z,9.42
2022-09-21T01:56:46.122Z,9.41
2022-09-21T01:57:45.998Z,9.40
2022-09-21T01:58:45.057Z,9.38
2022-09-21T01:59:45.049Z,9.37
2022-09-21T02:00:45.065Z,9.36
2022-09-21T02:01:45.024Z,9.34
2022-09-21T02:02:46.073Z,9.32
2022-09-21T02:03:45.638Z,9.31
2022-09-21T02:04:46.428Z,9.30
2022-09-21T02:05:44.968Z,9.29
2022-09-21T02:06:45.634Z,9.28
2022-09-21T02:07:45.623Z,9.27
2022-09-21T02:08:44.962Z,9.26
2022-09-21T02:09:45.602Z,9.25
2022-09-21T02:10:45.110Z,9.25
2022-09-21T02:11:45.006Z,9.25
2022-09-21T02:12:45.569Z,9.23
2022-09-21T02:13:44.870Z,9.24
2022-09-21T02:14:44.970Z,9.23
2022-09-21T02:15:44.949Z,9.23
2022-09-21T02:16:44.851Z,9.23
2022-09-21T02:17:45.831Z,9.23
2022-09-21T02:18:44.853Z,9.23
2022-09-21T02:19:44.844Z,9.23
2022-09-21T02:20:45.559Z,9.23
2022-09-21T02:21:44.823Z,9.23
2022-09-21T02:22:46.262Z,9.23
2022-09-21T02:23:44.793Z,9.24
2022-09-21T02:24:45.732Z,9.24
2022-09-21T02:25:45.431Z,9.24
2022-09-21T02:26:44.801Z,9.24
2022-09-21T02:27:44.773Z,9.26
2022-09-21T02:28:44.722Z,9.25
2022-09-21T02:29:45.396Z,9.26
2022-09-21T02:30:45.375Z,9.25
2022-09-21T02:31:44.783Z,9.25
2022-09-21T02:32:44.781Z,9.24
2022-09-21T02:33:44.733Z,9.24
2022-09-21T02:34:44.683Z,9.23
2022-09-21T02:35:44.669Z,9.23
2022-09-21T02:36:44.677Z,9.23
2022-09-21T02:37:44.666Z,9.22
2022-09-21T02:38:45.284Z,9.22
2022-09-21T02:39:45.625Z,9.22
2022-09-21T02:40:46.589Z,9.21
2022-09-21T02:41:45.577Z,9.20
2022-09-21T02:42:45.535Z,9.21
2022-09-21T02:43:45.586Z,9.21
2022-09-21T02:44:45.207Z,9.22
2022-09-21T02:45:44.638Z,9.23
2022-09-21T02:46:44.597Z,9.24
2022-09-21T02:47:45.199Z,9.24
2022-09-21T02:48:44.564Z,9.24
2022-09-21T02:49:44.615Z,9.24
2022-09-21T02:50:44.526Z,9.24
2022-09-21T02:51:45.907Z,9.25
2022-09-21T02:52:45.907Z,9.24
2022-09-21T02:53:45.867Z,9.24
2022-09-21T02:54:44.436Z,9.21
2022-09-21T02:55:44.936Z,9.20
2022-09-21T02:56:45.086Z,9.20
2022-09-21T02:57:45.349Z,9.21
2022-09-21T02:58:44.387Z,9.21
2022-09-21T02:59:45.326Z,9.20
2022-09-21T03:00:45.070Z,9.20
2022-09-21T03:01:44.381Z,9.20
2022-09-21T03:02:45.008Z,9.19
2022-09-21T03:03:45.017Z,9.17
2022-09-21T03:04:44.338Z,9.16
2022-09-21T03:05:44.999Z,9.15
2022-09-21T03:06:45.740Z,9.14
2022-09-21T03:07:45.234Z,9.11
2022-09-21T03:08:44.339Z,9.11
2022-09-21T03:09:44.308Z,9.09
2022-09-21T03:10:44.291Z,9.08
2022-09-21T03:11:44.249Z,9.06
2022-09-21T03:12:44.910Z,9.03
2022-09-21T03:13:44.220Z,9.00
2022-09-21T03:14:44.888Z,8.98
2022-09-21T03:15:44.941Z,8.95
2022-09-21T03:16:44.885Z,8.92
2022-09-21T03:17:44.244Z,8.89
2022-09-21T03:18:44.874Z,8.87
2022-09-21T03:19:44.841Z,8.85
2022-09-21T03:20:45.190Z,8.83
2022-09-21T03:21:45.026Z,8.82
2022-09-21T03:22:44.813Z,8.80
2022-09-21T03:23:44.812Z,8.80
2022-09-21T03:24:44.792Z,8.79
2022-09-21T03:25:44.773Z,8.78
2022-09-21T03:26:44.752Z,8.79
2022-09-21T03:27:45.036Z,8.78
2022-09-21T03:28:44.063Z,8.78
2022-09-21T03:29:44.054Z,8.78
2022-09-21T03:30:44.170Z,8.77
2022-09-21T03:31:44.718Z,8.76
2022-09-21T03:32:44.046Z,8.76
2022-09-21T03:33:44.024Z,8.76
2022-09-21T03:34:45.470Z,8.76
2022-09-21T03:35:43.993Z,8.76
2022-09-21T03:36:44.004Z,8.76
2022-09-21T03:37:43.993Z,8.77
2022-09-21T03:38:44.054Z,8.77
2022-09-21T03:39:44.624Z,8.77
2022-09-21T03:40:44.613Z,8.77
2022-09-21T03:41:45.398Z,8.77
2022-09-21T03:42:43.910Z,8.78
2022-09-21T03:43:44.587Z,8.78
2022-09-21T03:44:43.915Z,8.77
2022-09-21T03:45:43.886Z,8.77
2022-09-21T03:46:44.086Z,8.78
2022-09-21T03:47:43.862Z,8.78
2022-09-21T03:48:43.862Z,8.79
2022-09-21T03:49:44.516Z,8.78
2022-09-21T03:50:44.475Z,8.79
2022-09-21T03:51:44.529Z,8.78
2022-09-21T03:52:43.879Z,8.80
2022-09-21T03:53:43.788Z,8.81
2022-09-21T03:54:43.796Z,8.82
2022-09-21T03:55:44.527Z,8.83
2022-09-21T03:56:44.439Z,8.84
2022-09-21T03:57:43.777Z,8.85
2022-09-21T03:58:44.419Z,8.85
2022-09-21T03:59:45.168Z,8.85
2022-09-21T04:00:43.719Z,8.86
2022-09-21T04:01:43.760Z,8.84
2022-09-21T04:02:43.743Z,8.83
2022-09-21T04:03:44.358Z,8.83
2022-09-21T04:04:43.681Z,8.81
2022-09-21T04:05:43.659Z,8.81
2022-09-21T04:06:43.659Z,8.80
2022-09-21T04:07:43.682Z,8.81
2022-09-21T04:08:44.310Z,8.79
2022-09-21T04:09:43.629Z,8.79
2022-09-21T04:10:43.610Z,8.78
2022-09-21T04:11:43.616Z,8.78
2022-09-21T04:12:43.582Z,8.78
2022-09-21T04:13:44.270Z,8.77
2022-09-21T04:14:44.246Z,8.78
2022-09-21T04:15:43.631Z,8.78
2022-09-21T04:16:43.599Z,8.77
2022-09-21T04:17:44.209Z,8.77
2022-09-21T04:18:43.520Z,8.77
2022-09-21T04:19:44.210Z,8.78
2022-09-21T04:20:43.488Z,8.78
2022-09-21T04:21:44.177Z,8.78
2022-09-21T04:22:44.436Z,8.77
2022-09-21T04:23:44.143Z,8.77
2022-09-21T04:24:44.142Z,8.77
2022-09-21T04:25:43.490Z,8.77
2022-09-21T04:26:43.443Z,8.77
2022-09-21T04:27:43.440Z,8.77
2022-09-21T04:28:44.084Z,8.77
2022-09-21T04:29:44.092Z,8.75
2022-09-21T04:30:43.462Z,8.75
2022-09-21T04:31:44.051Z,8.74
2022-09-21T04:32:44.060Z,8.72
2022-09-21T04:33:43.361Z,8.72
2022-09-21T04:34:44.786Z,8.69
2022-09-21T04:35:43.434Z,8.68
2022-09-21T04:36:44.015Z,8.66
2022-09-21T04:37:43.395Z,8.65
2022-09-21T04:38:43.993Z,8.64
2022-09-21T04:39:43.298Z,8.62
2022-09-21T04:40:48.054Z,8.61
2022-09-21T04:41:43.946Z,8.61
2022-09-21T04:42:43.295Z,8.61
2022-09-21T04:43:43.956Z,8.60
2022-09-21T04:44:43.925Z,8.61
2022-09-21T04:45:43.918Z,8.62
2022-09-21T04:46:43.516Z,8.61
2022-09-21T04:47:43.895Z,8.61
2022-09-21T04:48:43.203Z,8.61
2022-09-21T04:49:43.846Z,8.62
2022-09-21T04:50:43.864Z,8.62
2022-09-21T04:51:43.208Z,8.64
2022-09-21T04:52:43.849Z,8.63
2022-09-21T04:53:43.834Z,8.63
2022-09-21T04:54:43.819Z,8.61
2022-09-21T04:55:43.887Z,8.61
2022-09-21T04:56:43.127Z,8.60
2022-09-21T04:57:43.108Z,8.59
2022-09-21T04:58:43.999Z,8.59
2022-09-21T04:59:43.769Z,8.59
2022-09-21T05:00:43.049Z,8.59
2022-09-21T05:01:43.782Z,8.58
2022-09-21T05:02:43.050Z,8.58
2022-09-21T05:03:43.778Z,8.58
2022-09-21T05:04:47.505Z,8.57
2022-09-21T05:05:44.010Z,8.58
2022-09-21T05:06:43.693Z,8.58
2022-09-21T05:07:43.750Z,8.58
2022-09-21T05:08:42.979Z,8.58
2022-09-21T05:09:42.979Z,8.57
2022-09-21T05:10:43.030Z,8.56
2022-09-21T05:11:43.031Z,8.56
2022-09-21T05:12:43.794Z,8.56
2022-09-21T05:13:43.074Z,8.55
2022-09-21T05:14:43.902Z,8.55
2022-09-21T05:15:43.617Z,8.55
2022-09-21T05:16:43.861Z,8.54
2022-09-21T05:17:42.976Z,8.54
2022-09-21T05:18:43.562Z,8.55
2022-09-21T05:19:43.019Z,8.54
2022-09-21T05:20:43.544Z,8.55
2022-09-21T05:21:42.921Z,8.55
2022-09-21T05:22:43.704Z,8.56
2022-09-21T05:23:43.518Z,8.54
2022-09-21T05:24:43.493Z,8.55
2022-09-21T05:25:42.903Z,8.56
2022-09-21T05:26:43.704Z,8.56
2022-09-21T05:27:42.787Z,8.57
2022-09-21T05:28:43.684Z,8.59
2022-09-21T05:29:42.993Z,8.59
2022-09-21T05:30:56.227Z,8.62
2022-09-21T05:31:44.754Z,8.64
2022-09-21T05:32:42.744Z,8.66
2022-09-21T05:33:43.394Z,8.66
2022-09-21T05:34:43.387Z,8.67
2022-09-21T05:35:43.375Z,8.67
2022-09-21T05:36:43.368Z,8.66
2022-09-21T05:37:43.336Z,8.67
2022-09-21T05:38:43.367Z,8.67
2022-09-21T05:39:42.675Z,8.68
2022-09-21T05:40:43.382Z,8.69
2022-09-21T05:41:43.320Z,8.69
2022-09-21T05:42:43.306Z,8.69
2022-09-21T05:43:43.275Z,8.69
2022-09-21T05:44:43.531Z,8.68
2022-09-21T05:45:47.302Z,8.68
2022-09-21T05:46:43.505Z,8.67
2022-09-21T05:47:43.246Z,8.68
2022-09-21T05:48:43.238Z,8.68
2022-09-21T05:49:42.557Z,8.68
2022-09-21T05:50:42.530Z,8.69
2022-09-21T05:51:42.547Z,8.72
2022-09-21T05:52:43.188Z,8.74
2022-09-21T05:53:43.187Z,8.75
2022-09-21T05:54:42.496Z,8.75
2022-09-21T05:55:43.428Z,8.76
2022-09-21T05:56:43.164Z,8.78
2022-09-21T05:57:43.139Z,8.81
2022-09-21T05:58:42.449Z,8.85
2022-09-21T05:59:42.469Z,8.89
2022-09-21T06:00:43.118Z,8.93
2022-09-21T06:01:43.242Z,8.98
2022-09-21T06:02:43.156Z,9.03
2022-09-21T06:03:42.452Z,9.08
2022-09-21T06:04:42.407Z,9.12
2022-09-21T06:05:43.050Z,9.17
2022-09-21T06:06:43.040Z,9.22
2022-09-21T06:07:42.446Z,9.28
2022-09-21T06:08:43.024Z,9.35
2022-09-21T06:09:43.386Z,9.41
2022-09-21T06:10:43.230Z,9.47
2022-09-21T06:11:43.000Z,9.53
2022-09-21T06:12:42.980Z,9.56
2022-09-21T06:13:43.061Z,9.61
2022-09-21T06:14:42.951Z,9.65
2022-09-21T06:15:42.941Z,9.70
2022-09-21T06:16:43.007Z,9.76
2022-09-21T06:17:43.164Z,9.82
2022-09-21T06:18:43.171Z,9.90
2022-09-21T06:19:42.886Z,9.97
2022-09-21T06:20:42.215Z,10.04
2022-09-21T06:21:42.881Z,10.10
2022-09-21T06:22:42.862Z,10.14
2022-09-21T06:23:42.864Z,10.17
2022-09-21T06:24:42.192Z,10.23
2022-09-21T06:25:42.183Z,10.29
2022-09-21T06:26:42.233Z,10.35
2022-09-21T06:27:42.813Z,10.40
2022-09-21T06:28:42.202Z,10.47
2022-09-21T06:29:42.115Z,10.54
2022-09-21T06:30:42.165Z,10.60
2022-09-21T06:31:42.763Z,10.67
2022-09-21T06:32:42.135Z,10.77
2022-09-21T06:33:46.180Z,10.85
2022-09-21T06:34:43.966Z,10.91
2022-09-21T06:35:42.045Z,10.95
2022-09-21T06:36:42.036Z,10.98
2022-09-21T06:37:42.694Z,11.02
2022-09-21T06:38:42.695Z,11.07
2022-09-21T06:39:42.009Z,11.12
2022-09-21T06:40:42.717Z,11.15
2022-09-21T06:41:42.669Z,11.17
2022-09-21T06:42:42.046Z,11.21
2022-09-21T06:43:42.176Z,11.27
2022-09-21T06:44:42.635Z,11.31
2022-09-21T06:45:42.699Z,11.38
2022-09-21T06:46:41.935Z,11.50
2022-09-21T06:47:42.073Z,11.66
2022-09-21T06:48:43.397Z,11.79
2022-09-21T06:49:42.848Z,11.93
2022-09-21T06:50:43.347Z,12.04
2022-09-21T06:51:42.558Z,12.16
2022-09-21T06:52:41.980Z,12.27
2022-09-21T06:53:41.877Z,12.36
2022-09-21T06:54:41.889Z,12.42
2022-09-21T06:55:42.590Z,12.50
2022-09-21T06:56:43.271Z,12.57
2022-09-21T06:57:41.808Z,12.61
2022-09-21T06:58:43.240Z,12.65
2022-09-21T06:59:41.788Z,12.66
2022-09-21T07:00:42.503Z,12.65
2022-09-21T07:01:42.054Z,12.65
2022-09-21T07:02:41.760Z,12.68
2022-09-21T07:03:41.750Z,12.70
2022-09-21T07:04:43.201Z,12.73
2022-09-21T07:05:42.418Z,12.76
2022-09-21T07:06:41.811Z,12.78
2022-09-21T07:07:41.808Z,12.81
2022-09-21T07:10:44.929Z,12.97
2022-09-21T07:11:42.603Z,13.05
2022-09-21T07:12:43.087Z,13.13
2022-09-21T07:13:42.312Z,13.21
2022-09-21T07:14:42.312Z,13.28
2022-09-21T07:15:41.623Z,13.34
2022-09-21T07:16:42.312Z,13.40
2022-09-21T07:17:41.600Z,13.44
2022-09-21T07:18:43.737Z,13.48
2022-09-21T07:19:42.256Z,13.50
2022-09-21T07:20:42.253Z,13.50
2022-09-21T07:21:42.235Z,13.51
2022-09-21T07:22:42.984Z,13.55
2022-09-21T07:23:42.217Z,13.61
2022-09-21T07:24:41.530Z,13.65
2022-09-21T07:25:42.605Z,13.67
2022-09-21T07:26:41.514Z,13.69
2022-09-21T07:27:41.610Z,13.72
2022-09-21T07:28:42.186Z,13.77
2022-09-21T07:29:41.566Z,13.84
2022-09-21T07:30:42.146Z,13.89
2022-09-21T07:31:42.457Z,13.95
2022-09-21T07:32:41.436Z,14.04
2022-09-21T07:33:41.449Z,14.15
2022-09-21T07:34:42.938Z,14.27
2022-09-21T07:35:41.426Z,14.39
2022-09-21T07:36:41.427Z,14.49
2022-09-21T07:37:42.047Z,14.55
2022-09-21T07:38:41.367Z,14.59
2022-09-21T07:39:41.672Z,14.61
2022-09-21T07:40:41.472Z,14.61
2022-09-21T07:41:41.368Z,14.62
2022-09-21T07:42:41.390Z,14.62
2022-09-21T07:43:41.401Z,14.65
2022-09-21T07:44:41.990Z,14.72
2022-09-21T07:45:41.424Z,14.83
2022-09-21T07:46:45.783Z,14.97
2022-09-21T07:47:43.789Z,15.08
2022-09-21T07:48:41.280Z,15.13
2022-09-21T07:49:42.025Z,15.18
2022-09-21T07:50:41.924Z,15.25
2022-09-21T07:51:41.910Z,15.34
2022-09-21T07:52:42.695Z,15.43
2022-09-21T07:53:42.182Z,15.54
2022-09-21T07:54:41.240Z,15.66
2022-09-21T07:55:41.952Z,15.77
2022-09-21T07:56:41.873Z,15.86
2022-09-21T07:57:41.182Z,16.01
2022-09-21T07:58:41.887Z,16.28
2022-09-21T07:59:41.142Z,16.72
2022-09-21T08:00:41.248Z,17.36
2022-09-21T08:01:41.287Z,17.72
2022-09-21T08:02:46.694Z,17.97
2022-09-21T08:03:42.099Z,18.12
2022-09-21T08:04:41.343Z,18.32
2022-09-21T08:05:41.103Z,18.42
2022-09-21T08:06:41.115Z,18.45
2022-09-21T08:07:42.424Z,18.48
2022-09-21T08:08:41.736Z,18.46
2022-09-21T08:09:41.045Z,18.41
2022-09-21T08:10:41.723Z,18.43
2022-09-21T08:11:41.701Z,18.44
2022-09-21T08:12:41.018Z,18.43
2022-09-21T08:13:41.053Z,18.48
2022-09-21T08:14:41.957Z,18.62
2022-09-21T08:15:50.199Z,18.89
2022-09-21T08:16:42.030Z,19.39
2022-09-21T08:17:41.638Z,19.97
2022-09-21T08:18:40.940Z,20.37
2022-09-21T08:19:40.947Z,20.64
2022-09-21T08:20:40.949Z,20.40
2022-09-21T08:21:40.979Z,20.38
2022-09-21T08:22:40.903Z,20.36
2022-09-21T08:23:42.922Z,20.63
2022-09-21T08:24:40.879Z,21.06
2022-09-21T08:25:40.922Z,21.84
2022-09-21T08:26:40.978Z,22.32
2022-09-21T08:27:41.534Z,22.77
2022-09-21T08:28:41.803Z,23.46
2022-09-21T08:29:41.741Z,23.70
2022-09-21T08:30:41.499Z,23.93
2022-09-21T08:31:41.518Z,24.68
2022-09-21T08:32:51.181Z,25.50
2022-09-21T08:33:42.463Z,26.21
2022-09-21T08:34:41.623Z,26.76
2022-09-21T08:35:40.813Z,27.35
2022-09-21T08:36:41.648Z,27.82
2022-09-21T08:37:41.432Z,28.18
2022-09-21T08:38:41.413Z,28.57
2022-09-21T08:39:41.741Z,28.93
2022-09-21T08:40:41.647Z,29.23
2022-09-21T08:41:42.123Z,29.53
2022-09-21T08:42:41.365Z,29.79
2022-09-21T08:43:41.391Z,29.89
2022-09-21T08:44:41.351Z,29.91
2022-09-21T08:45:42.623Z,29.87
2022-09-21T08:46:40.720Z,29.79
2022-09-21T08:47:41.340Z,29.64
2022-09-21T08:48:41.314Z,29.50
2022-09-21T08:49:41.107Z,29.44
2022-09-21T08:50:41.545Z,29.49
2022-09-21T08:51:41.266Z,29.52
2022-09-21T08:52:42.713Z,29.54
2022-09-21T08:53:40.589Z,29.56
2022-09-21T08:54:41.411Z,29.58
2022-09-21T08:55:41.434Z,29.59
2022-09-21T08:57:03.533Z,29.55
2022-09-21T08:57:41.536Z,29.46
2022-09-21T08:58:40.544Z,29.40
2022-09-21T08:59:40.601Z,29.38
2022-09-21T09:00:40.525Z,29.37
2022-09-21T09:01:41.510Z,29.26
2022-09-21T09:02:41.440Z,29.10
2022-09-21T09:03:41.737Z,28.99
2022-09-21T09:04:40.485Z,28.94
2022-09-21T09:05:40.456Z,28.84
2022-09-21T09:06:41.872Z,28.68
2022-09-21T09:07:40.470Z,28.52
2022-09-21T09:08:41.350Z,28.41
2022-09-21T09:09:41.102Z,28.33
2022-09-21T09:10:41.214Z,28.24
2022-09-21T09:11:41.168Z,28.23
2022-09-21T09:12:41.052Z,28.22
2022-09-21T09:13:41.052Z,28.18
2022-09-21T09:14:41.021Z,28.13
2022-09-21T09:15:41.400Z,28.11
2022-09-21T09:16:41.004Z,28.09
2022-09-21T09:17:42.234Z,27.98
2022-09-21T09:18:43.597Z,27.88
2022-09-21T09:19:42.012Z,27.70
2022-09-21T09:20:40.274Z,27.54
2022-09-21T09:21:40.945Z,27.47
2022-09-21T09:22:40.334Z,27.44
2022-09-21T09:23:40.929Z,27.44
2022-09-21T09:24:41.071Z,27.48
2022-09-21T09:25:40.890Z,27.54
2022-09-21T09:26:41.148Z,27.60
2022-09-21T09:27:41.046Z,27.65
2022-09-21T09:28:40.244Z,27.64
2022-09-21T09:29:40.208Z,27.65
2022-09-21T09:30:41.001Z,27.67
2022-09-21T09:31:40.906Z,27.66
2022-09-21T09:32:40.180Z,27.65
2022-09-21T09:33:40.129Z,27.66
2022-09-21T09:34:40.814Z,27.70
2022-09-21T09:35:40.807Z,27.69
2022-09-21T09:36:57.977Z,27.58
2022-09-21T09:37:42.551Z,27.44
2022-09-21T09:38:40.783Z,27.35
2022-09-21T09:39:40.070Z,27.27
2022-09-21T09:40:40.118Z,27.18
2022-09-21T09:41:40.731Z,27.14
2022-09-21T09:42:40.731Z,27.13
2022-09-21T09:43:40.699Z,27.16
2022-09-21T09:44:40.924Z,27.14
2022-09-21T09:45:40.947Z,27.11
2022-09-21T09:46:41.997Z,27.14
2022-09-21T09:47:40.664Z,27.21
2022-09-21T09:48:40.663Z,27.25
2022-09-21T09:49:42.004Z,27.29
2022-09-21T09:50:39.955Z,27.33
2022-09-21T09:51:40.625Z,27.34
2022-09-21T09:52:40.616Z,27.38
2022-09-21T09:53:40.889Z,27.40
2022-09-21T09:54:40.605Z,27.42
2022-09-21T09:55:41.956Z,27.39
2022-09-21T09:56:40.570Z,27.36
2022-09-21T09:57:40.562Z,27.36
2022-09-21T09:58:40.550Z,27.39
2022-09-21T09:59:40.528Z,27.47
2022-09-21T10:00:39.869Z,27.57
2022-09-21T10:01:40.681Z,27.70
2022-09-21T10:02:40.511Z,27.82
2022-09-21T10:03:40.494Z,27.85
2022-09-21T10:04:39.834Z,27.80
2022-09-21T10:05:40.712Z,27.77
2022-09-21T10:06:45.805Z,27.68
2022-09-21T10:07:40.790Z,27.56
2022-09-21T10:08:40.449Z,27.48
2022-09-21T10:09:39.751Z,27.42
2022-09-21T10:10:41.188Z,27.39
2022-09-21T10:11:40.401Z,27.41
2022-09-21T10:12:39.784Z,27.39
2022-09-21T10:13:40.455Z,27.22
2022-09-21T10:14:39.693Z,27.12
2022-09-21T10:15:39.754Z,27.05
2022-09-21T10:16:40.363Z,26.94
2022-09-21T10:17:40.343Z,26.84
2022-09-21T10:18:40.324Z,26.64
2022-09-21T10:19:40.314Z,26.58
2022-09-21T10:20:39.634Z,26.48
2022-09-21T10:21:40.293Z,26.26
2022-09-21T10:22:40.295Z,25.91
2022-09-21T10:23:39.596Z,25.50
2022-09-21T10:24:40.267Z,25.15
2022-09-21T10:25:40.270Z,24.84
2022-09-21T10:26:41.516Z,24.54
2022-09-21T10:27:40.456Z,24.28
2022-09-21T10:28:40.227Z,24.08
2022-09-21T10:29:39.548Z,23.94
2022-09-21T10:30:39.547Z,23.80
2022-09-21T10:31:40.229Z,23.72
2022-09-21T10:32:40.177Z,23.65
2022-09-21T10:33:40.417Z,23.57
2022-09-21T10:34:40.175Z,23.47
2022-09-21T10:35:40.146Z,23.40
2022-09-21T10:36:40.140Z,23.36
2022-09-21T10:37:40.135Z,23.33
2022-09-21T10:38:39.431Z,23.33
2022-09-21T10:39:40.840Z,23.32
2022-09-21T10:40:40.241Z,23.31
2022-09-21T10:41:40.350Z,23.31
2022-09-21T10:42:39.398Z,23.31
2022-09-21T10:43:43.507Z,23.30
2022-09-21T10:44:40.281Z,23.26
2022-09-21T10:45:40.034Z,23.21
2022-09-21T10:46:40.165Z,23.12
2022-09-21T10:47:39.374Z,23.04
2022-09-21T10:48:40.265Z,22.97
2022-09-21T10:49:39.994Z,22.92
2022-09-21T10:50:39.993Z,22.85
2022-09-21T10:51:39.972Z,22.79
2022-09-21T10:52:39.282Z,22.72
2022-09-21T10:53:39.957Z,22.62
2022-09-21T10:54:40.694Z,22.54
2022-09-21T10:55:44.007Z,22.45
2022-09-21T10:56:40.236Z,22.35
2022-09-21T10:57:39.236Z,22.22
2022-09-21T10:58:39.214Z,22.13
2022-09-21T10:59:39.215Z,22.01
2022-09-21T11:00:39.886Z,21.90
2022-09-21T11:01:39.905Z,21.81
2022-09-21T11:02:39.272Z,21.74
2022-09-21T11:03:39.166Z,21.64
2022-09-21T11:04:39.837Z,21.53
2022-09-21T11:05:39.822Z,21.46
2022-09-21T11:06:41.068Z,21.39
2022-09-21T11:07:39.164Z,21.32
2022-09-21T11:08:39.788Z,21.23
2022-09-21T11:09:39.090Z,21.08
2022-09-21T11:10:39.088Z,20.94
2022-09-21T11:11:39.760Z,20.79
2022-09-21T11:12:39.749Z,20.66
2022-09-21T11:13:39.800Z,20.53
2022-09-21T11:14:40.491Z,20.41
2022-09-21T11:15:39.078Z,20.28
2022-09-21T11:16:39.701Z,20.20
2022-09-21T11:17:39.011Z,20.13
2022-09-21T11:18:39.685Z,20.09
2022-09-21T11:19:39.743Z,20.12
2022-09-21T11:20:38.995Z,20.15
2022-09-21T11:21:39.913Z,20.19
2022-09-21T11:22:39.646Z,20.24
2022-09-21T11:23:38.945Z,20.29
2022-09-21T11:24:39.647Z,20.34
2022-09-21T11:25:39.003Z,20.39
2022-09-21T11:26:38.918Z,20.40
2022-09-21T11:27:38.905Z,20.42
2022-09-21T11:28:40.326Z,20.45
2022-09-21T11:29:39.555Z,20.50
2022-09-21T11:30:38.925Z,20.55
2022-09-21T11:31:39.531Z,20.59
2022-09-21T11:32:38.846Z,20.63
2022-09-21T11:33:38.846Z,20.66
2022-09-21T11:34:39.496Z,20.68
2022-09-21T11:35:40.322Z,20.71
2022-09-21T11:36:39.487Z,20.75
2022-09-21T11:37:39.485Z,20.79
2022-09-21T11:38:43.156Z,20.83
2022-09-21T11:39:38.766Z,20.88
2022-09-21T11:40:39.480Z,20.93
2022-09-21T11:41:38.825Z,20.97
2022-09-21T11:42:39.789Z,21.03
2022-09-21T11:43:39.411Z,21.09
2022-09-21T11:44:38.709Z,21.14
2022-09-21T11:45:40.202Z,21.19
2022-09-21T11:46:38.698Z,21.25
2022-09-21T11:47:39.372Z,21.31
2022-09-21T11:48:39.640Z,21.36
2022-09-21T11:49:39.622Z,21.43
2022-09-21T11:50:39.368Z,21.48
2022-09-21T11:51:39.321Z,21.52
2022-09-21T11:52:39.312Z,21.58
2022-09-21T11:53:39.303Z,21.61
2022-09-21T11:54:38.602Z,21.64
2022-09-21T11:55:39.276Z,21.65
2022-09-21T11:56:39.273Z,21.64
2022-09-21T11:57:39.261Z,21.60
2022-09-21T11:58:39.242Z,21.55
2022-09-21T11:59:39.244Z,21.50
2022-09-21T12:00:38.658Z,21.47
2022-09-21T12:01:38.600Z,21.44
2022-09-21T12:02:38.770Z,21.46
2022-09-21T12:03:38.507Z,21.48
2022-09-21T12:04:38.518Z,21.54
2022-09-21T12:05:38.504Z,21.62
2022-09-21T12:06:38.467Z,21.72
2022-09-21T12:07:39.147Z,21.84
2022-09-21T12:08:38.457Z,21.95
2022-09-21T12:09:39.139Z,22.03
2022-09-21T12:10:39.124Z,22.06
2022-09-21T12:11:38.439Z,22.04
2022-09-21T12:12:40.337Z,22.03
2022-09-21T12:13:39.092Z,22.03
2022-09-21T12:14:39.132Z,22.07
2022-09-21T12:15:38.402Z,22.04
2022-09-21T12:16:39.112Z,22.01
2022-09-21T12:17:39.309Z,22.02
2022-09-21T12:18:40.382Z,21.99
2022-09-21T12:19:38.458Z,21.96
2022-09-21T12:20:39.029Z,21.93
2022-09-21T12:21:38.322Z,21.90
2022-09-21T12:22:38.300Z,21.90
2022-09-21T12:23:38.291Z,21.97
2022-09-21T12:24:38.282Z,22.05
2022-09-21T12:25:39.292Z,22.07
2022-09-21T12:26:39.702Z,22.07
2022-09-21T12:27:38.942Z,22.06
2022-09-21T12:28:38.241Z,22.04
2022-09-21T12:29:38.944Z,22.01
2022-09-21T12:30:38.919Z,21.96
2022-09-21T12:31:38.987Z,21.88
2022-09-21T12:32:38.882Z,21.78
2022-09-21T12:33:38.876Z,21.71
2022-09-21T12:34:38.163Z,21.64
2022-09-21T12:35:38.166Z,21.59
2022-09-21T12:36:41.010Z,21.55
2022-09-21T12:37:38.297Z,21.53
2022-09-21T12:38:38.146Z,21.57
2022-09-21T12:39:39.568Z,21.63
2022-09-21T12:40:38.945Z,21.68
2022-09-21T12:41:38.107Z,21.71
2022-09-21T12:42:38.217Z,21.73
2022-09-21T12:43:38.133Z,21.76
2022-09-21T12:44:42.677Z,21.83
2022-09-21T12:45:39.791Z,21.86
2022-09-21T12:46:38.107Z,21.87
2022-09-21T12:47:38.088Z,21.87
2022-09-21T12:48:39.448Z,21.84
2022-09-21T12:49:38.199Z,21.79
2022-09-21T12:50:37.999Z,21.70
2022-09-21T12:51:38.669Z,21.63
2022-09-21T12:52:38.059Z,21.56
2022-09-21T12:53:37.965Z,21.53
2022-09-21T12:54:39.483Z,21.55
2022-09-21T12:55:38.000Z,21.60
2022-09-21T12:56:38.618Z,21.66
2022-09-21T12:57:53.669Z,21.68
2022-09-21T12:58:40.358Z,21.71
2022-09-21T12:59:38.591Z,21.73
2022-09-21T13:00:38.574Z,21.77
2022-09-21T13:01:38.756Z,21.82
2022-09-21T13:02:38.685Z,21.83
2022-09-21T13:03:37.891Z,21.84
2022-09-21T13:04:37.863Z,21.87
2022-09-21T13:05:37.855Z,21.88